sensor_id;sensor_type;location;lat;lon;timestamp;P1;durP1;ratioP1;P2;durP2;ratioP2
69150;SDS011;56257;52.196;13.870;2022-09-03T00:00:50;3.63;;;1.20;;
69150;SDS011;56257;52.196;13.870;2022-09-03T00:08:37;3.97;;;1.30;;
69150;SDS011;56257;52.196;13.870;2022-09-03T00:11:13;3.58;;;1.00;;
69150;SDS011;56257;52.196;13.870;2022-09-03T00:13:45;3.17;;;0.80;;
69150;SDS011;56257;52.196;13.870;2022-09-03T00:16:14;6.00;;;1.67;;
69150;SDS011;56257;52.196;13.870;2022-09-03T00:18:57;9.25;;;1.67;;
69150;SDS011;56257;52.196;13.870;2022-09-03T00:21:37;3.53;;;1.30;;
69150;SDS011;56257;52.196;13.870;2022-09-03T00:24:07;3.80;;;1.20;;
69150;SDS011;56257;52.196;13.870;2022-09-03T00:26:41;3.60;;;1.03;;
69150;SDS011;56257;52.196;13.870;2022-09-03T00:29:18;3.60;;;1.10;;
69150;SDS011;56257;52.196;13.870;2022-09-03T00:31:48;4.07;;;1.10;;
69150;SDS011;56257;52.196;13.870;2022-09-03T00:34:31;4.18;;;1.00;;
69150;SDS011;56257;52.196;13.870;2022-09-03T00:37:00;3.47;;;1.30;;
69150;SDS011;56257;52.196;13.870;2022-09-03T00:39:28;3.23;;;1.37;;
69150;SDS011;56257;52.196;13.870;2022-09-03T00:47:41;3.45;;;1.20;;
69150;SDS011;56257;52.196;13.870;2022-09-03T00:59:37;3.47;;;1.20;;
69150;SDS011;56257;52.196;13.870;2022-09-03T01:01:47;3.08;;;1.10;;
69150;SDS011;56257;52.196;13.870;2022-09-03T01:04:28;3.70;;;1.20;;
69150;SDS011;56257;52.196;13.870;2022-09-03T01:17:34;3.30;;;0.90;;
69150;SDS011;56257;52.196;13.870;2022-09-03T01:29:06;4.60;;;1.10;;
69150;SDS011;56257;52.196;13.870;2022-09-03T01:31:57;4.30;;;1.33;;
69150;SDS011;56257;52.196;13.870;2022-09-03T01:34:26;3.50;;;1.50;;
69150;SDS011;56257;52.196;13.870;2022-09-03T01:37:29;3.40;;;1.10;;
69150;SDS011;56257;52.196;13.870;2022-09-03T01:46:32;3.10;;;1.08;;
69150;SDS011;56257;52.196;13.870;2022-09-03T01:51:41;3.58;;;1.30;;
69150;SDS011;56257;52.196;13.870;2022-09-03T02:00:06;3.20;;;1.08;;
69150;SDS011;56257;52.196;13.870;2022-09-03T02:02:35;5.00;;;1.27;;
69150;SDS011;56257;52.196;13.870;2022-09-03T02:07:50;4.13;;;1.40;;
69150;SDS011;56257;52.196;13.870;2022-09-03T02:10:26;3.85;;;1.30;;
69150;SDS011;56257;52.196;13.870;2022-09-03T02:15:39;3.53;;;1.30;;
69150;SDS011;56257;52.196;13.870;2022-09-03T02:18:09;3.67;;;1.20;;
69150;SDS011;56257;52.196;13.870;2022-09-03T02:20:45;3.60;;;1.17;;
69150;SDS011;56257;52.196;13.870;2022-09-03T02:23:13;4.03;;;1.25;;
69150;SDS011;56257;52.196;13.870;2022-09-03T02:25:42;3.55;;;1.30;;
69150;SDS011;56257;52.196;13.870;2022-09-03T02:28:14;3.43;;;1.00;;
69150;SDS011;56257;52.196;13.870;2022-09-03T02:30:48;3.50;;;1.20;;
69150;SDS011;56257;52.196;13.870;2022-09-03T02:33:15;3.60;;;1.20;;
69150;SDS011;56257;52.196;13.870;2022-09-03T02:35:42;5.32;;;1.40;;
69150;SDS011;56257;52.196;13.870;2022-09-03T02:38:10;3.50;;;1.52;;
69150;SDS011;56257;52.196;13.870;2022-09-03T02:40:37;3.70;;;1.27;;
69150;SDS011;56257;52.196;13.870;2022-09-03T02:43:05;4.30;;;1.08;;
69150;SDS011;56257;52.196;13.870;2022-09-03T02:45:34;3.58;;;1.27;;
69150;SDS011;56257;52.196;13.870;2022-09-03T02:48:01;3.35;;;1.25;;
69150;SDS011;56257;52.196;13.870;2022-09-03T02:50:29;4.05;;;1.35;;
69150;SDS011;56257;52.196;13.870;2022-09-03T02:52:55;4.17;;;1.40;;
69150;SDS011;56257;52.196;13.870;2022-09-03T02:55:22;4.43;;;1.25;;
69150;SDS011;56257;52.196;13.870;2022-09-03T02:57:49;3.53;;;1.10;;
69150;SDS011;56257;52.196;13.870;2022-09-03T03:00:16;3.90;;;1.40;;
69150;SDS011;56257;52.196;13.870;2022-09-03T03:02:43;4.05;;;1.27;;
69150;SDS011;56257;52.196;13.870;2022-09-03T03:05:10;3.80;;;1.30;;
69150;SDS011;56257;52.196;13.870;2022-09-03T03:07:43;3.53;;;1.17;;
69150;SDS011;56257;52.196;13.870;2022-09-03T03:10:09;5.18;;;1.25;;
69150;SDS011;56257;52.196;13.870;2022-09-03T03:12:37;4.20;;;1.30;;
69150;SDS011;56257;52.196;13.870;2022-09-03T03:15:05;3.85;;;1.48;;
69150;SDS011;56257;52.196;13.870;2022-09-03T03:17:32;4.13;;;1.77;;
69150;SDS011;56257;52.196;13.870;2022-09-03T03:19:58;3.35;;;1.40;;
69150;SDS011;56257;52.196;13.870;2022-09-03T03:22:25;3.22;;;1.20;;
69150;SDS011;56257;52.196;13.870;2022-09-03T03:24:52;3.75;;;1.42;;
69150;SDS011;56257;52.196;13.870;2022-09-03T03:27:20;4.50;;;1.30;;
69150;SDS011;56257;52.196;13.870;2022-09-03T03:29:47;5.37;;;1.50;;
69150;SDS011;56257;52.196;13.870;2022-09-03T03:32:14;3.45;;;1.20;;
69150;SDS011;56257;52.196;13.870;2022-09-03T03:34:40;3.88;;;1.35;;
69150;SDS011;56257;52.196;13.870;2022-09-03T03:37:07;3.28;;;1.17;;
69150;SDS011;56257;52.196;13.870;2022-09-03T03:39:34;4.65;;;1.60;;
69150;SDS011;56257;52.196;13.870;2022-09-03T03:42:01;3.33;;;1.37;;
69150;SDS011;56257;52.196;13.870;2022-09-03T03:44:27;3.97;;;1.35;;
69150;SDS011;56257;52.196;13.870;2022-09-03T03:46:54;3.55;;;1.10;;
69150;SDS011;56257;52.196;13.870;2022-09-03T03:49:21;3.10;;;1.02;;
69150;SDS011;56257;52.196;13.870;2022-09-03T03:51:48;3.92;;;1.30;;
69150;SDS011;56257;52.196;13.870;2022-09-03T03:54:14;3.63;;;1.10;;
69150;SDS011;56257;52.196;13.870;2022-09-03T03:56:43;3.42;;;1.30;;
69150;SDS011;56257;52.196;13.870;2022-09-03T03:59:15;3.60;;;1.40;;
69150;SDS011;56257;52.196;13.870;2022-09-03T04:01:42;4.40;;;1.20;;
69150;SDS011;56257;52.196;13.870;2022-09-03T04:04:09;3.85;;;1.40;;
69150;SDS011;56257;52.196;13.870;2022-09-03T04:06:36;4.10;;;0.90;;
69150;SDS011;56257;52.196;13.870;2022-09-03T04:09:02;4.95;;;1.23;;
69150;SDS011;56257;52.196;13.870;2022-09-03T04:11:29;3.97;;;1.25;;
69150;SDS011;56257;52.196;13.870;2022-09-03T04:13:55;5.30;;;1.25;;
69150;SDS011;56257;52.196;13.870;2022-09-03T04:16:23;4.20;;;1.20;;
69150;SDS011;56257;52.196;13.870;2022-09-03T04:18:51;3.20;;;1.10;;
69150;SDS011;56257;52.196;13.870;2022-09-03T04:21:23;4.22;;;1.30;;
69150;SDS011;56257;52.196;13.870;2022-09-03T04:23:54;3.72;;;1.30;;
69150;SDS011;56257;52.196;13.870;2022-09-03T04:26:31;3.00;;;0.90;;
69150;SDS011;56257;52.196;13.870;2022-09-03T04:28:59;3.67;;;1.10;;
69150;SDS011;56257;52.196;13.870;2022-09-03T04:31:27;4.77;;;1.27;;
69150;SDS011;56257;52.196;13.870;2022-09-03T04:33:55;3.88;;;1.20;;
69150;SDS011;56257;52.196;13.870;2022-09-03T04:36:22;3.90;;;1.23;;
69150;SDS011;56257;52.196;13.870;2022-09-03T04:38:50;3.30;;;1.25;;
69150;SDS011;56257;52.196;13.870;2022-09-03T04:41:23;3.92;;;1.25;;
69150;SDS011;56257;52.196;13.870;2022-09-03T04:43:51;3.27;;;1.00;;
69150;SDS011;56257;52.196;13.870;2022-09-03T04:46:23;3.97;;;1.30;;
69150;SDS011;56257;52.196;13.870;2022-09-03T04:48:52;3.72;;;1.58;;
69150;SDS011;56257;52.196;13.870;2022-09-03T04:51:21;3.28;;;1.27;;
69150;SDS011;56257;52.196;13.870;2022-09-03T04:53:53;3.20;;;1.10;;
69150;SDS011;56257;52.196;13.870;2022-09-03T04:56:29;3.30;;;1.17;;
69150;SDS011;56257;52.196;13.870;2022-09-03T04:59:04;4.30;;;1.00;;
69150;SDS011;56257;52.196;13.870;2022-09-03T05:01:33;4.22;;;1.25;;
69150;SDS011;56257;52.196;13.870;2022-09-03T05:04:01;3.85;;;1.33;;
69150;SDS011;56257;52.196;13.870;2022-09-03T05:06:28;3.90;;;1.25;;
69150;SDS011;56257;52.196;13.870;2022-09-03T05:08:56;3.57;;;1.43;;
69150;SDS011;56257;52.196;13.870;2022-09-03T05:11:24;3.55;;;1.50;;
69150;SDS011;56257;52.196;13.870;2022-09-03T05:13:53;4.38;;;1.05;;
69150;SDS011;56257;52.196;13.870;2022-09-03T05:16:21;4.63;;;1.10;;
69150;SDS011;56257;52.196;13.870;2022-09-03T05:18:52;4.82;;;1.05;;
69150;SDS011;56257;52.196;13.870;2022-09-03T05:21:20;4.03;;;1.30;;
69150;SDS011;56257;52.196;13.870;2022-09-03T05:23:48;4.00;;;1.10;;
69150;SDS011;56257;52.196;13.870;2022-09-03T05:26:23;3.60;;;1.30;;
69150;SDS011;56257;52.196;13.870;2022-09-03T05:28:55;3.58;;;1.33;;
69150;SDS011;56257;52.196;13.870;2022-09-03T05:31:23;3.92;;;1.40;;
69150;SDS011;56257;52.196;13.870;2022-09-03T05:33:55;3.33;;;1.37;;
69150;SDS011;56257;52.196;13.870;2022-09-03T05:36:24;4.50;;;1.55;;
69150;SDS011;56257;52.196;13.870;2022-09-03T05:38:53;3.53;;;1.25;;
69150;SDS011;56257;52.196;13.870;2022-09-03T05:41:20;5.18;;;1.40;;
69150;SDS011;56257;52.196;13.870;2022-09-03T05:43:47;4.03;;;1.63;;
69150;SDS011;56257;52.196;13.870;2022-09-03T05:46:21;3.47;;;1.20;;
69150;SDS011;56257;52.196;13.870;2022-09-03T05:48:51;3.75;;;1.60;;
69150;SDS011;56257;52.196;13.870;2022-09-03T05:51:18;3.75;;;1.55;;
69150;SDS011;56257;52.196;13.870;2022-09-03T05:53:46;4.57;;;1.70;;
69150;SDS011;56257;52.196;13.870;2022-09-03T05:56:15;4.40;;;2.10;;
69150;SDS011;56257;52.196;13.870;2022-09-03T05:58:48;3.63;;;1.50;;
69150;SDS011;56257;52.196;13.870;2022-09-03T06:01:32;4.28;;;1.40;;
69150;SDS011;56257;52.196;13.870;2022-09-03T06:04:06;3.75;;;1.33;;
69150;SDS011;56257;52.196;13.870;2022-09-03T06:06:38;5.05;;;1.70;;
69150;SDS011;56257;52.196;13.870;2022-09-03T06:09:07;3.30;;;1.50;;
69150;SDS011;56257;52.196;13.870;2022-09-03T06:11:39;4.40;;;1.77;;
69150;SDS011;56257;52.196;13.870;2022-09-03T06:14:09;3.90;;;1.42;;
69150;SDS011;56257;52.196;13.870;2022-09-03T06:16:37;4.45;;;1.30;;
69150;SDS011;56257;52.196;13.870;2022-09-03T06:19:09;4.07;;;1.33;;
69150;SDS011;56257;52.196;13.870;2022-09-03T06:21:36;6.30;;;1.73;;
69150;SDS011;56257;52.196;13.870;2022-09-03T06:24:15;3.97;;;1.50;;
69150;SDS011;56257;52.196;13.870;2022-09-03T06:26:42;5.35;;;2.17;;
69150;SDS011;56257;52.196;13.870;2022-09-03T06:29:10;4.10;;;1.60;;
69150;SDS011;56257;52.196;13.870;2022-09-03T06:31:37;4.22;;;1.70;;
69150;SDS011;56257;52.196;13.870;2022-09-03T06:34:05;3.83;;;1.40;;
69150;SDS011;56257;52.196;13.870;2022-09-03T06:36:31;4.90;;;1.70;;
69150;SDS011;56257;52.196;13.870;2022-09-03T06:38:58;4.85;;;1.48;;
69150;SDS011;56257;52.196;13.870;2022-09-03T06:41:26;3.70;;;1.58;;
69150;SDS011;56257;52.196;13.870;2022-09-03T06:44:02;4.78;;;1.55;;
69150;SDS011;56257;52.196;13.870;2022-09-03T06:46:32;3.80;;;1.77;;
69150;SDS011;56257;52.196;13.870;2022-09-03T06:49:00;3.80;;;1.70;;
69150;SDS011;56257;52.196;13.870;2022-09-03T06:51:28;3.78;;;1.70;;
69150;SDS011;56257;52.196;13.870;2022-09-03T06:54:00;4.65;;;1.42;;
69150;SDS011;56257;52.196;13.870;2022-09-03T06:56:28;3.38;;;1.30;;
69150;SDS011;56257;52.196;13.870;2022-09-03T06:59:09;4.63;;;1.38;;
69150;SDS011;56257;52.196;13.870;2022-09-03T07:01:37;3.63;;;1.80;;
69150;SDS011;56257;52.196;13.870;2022-09-03T07:04:09;3.88;;;1.70;;
69150;SDS011;56257;52.196;13.870;2022-09-03T07:06:37;3.85;;;1.50;;
69150;SDS011;56257;52.196;13.870;2022-09-03T07:09:05;3.97;;;1.40;;
69150;SDS011;56257;52.196;13.870;2022-09-03T07:11:32;4.65;;;1.67;;
69150;SDS011;56257;52.196;13.870;2022-09-03T07:14:02;3.53;;;1.60;;
69150;SDS011;56257;52.196;13.870;2022-09-03T07:16:31;4.85;;;1.50;;
69150;SDS011;56257;52.196;13.870;2022-09-03T07:18:59;4.55;;;1.70;;
69150;SDS011;56257;52.196;13.870;2022-09-03T07:21:27;5.57;;;1.70;;
69150;SDS011;56257;52.196;13.870;2022-09-03T07:23:55;6.22;;;1.92;;
69150;SDS011;56257;52.196;13.870;2022-09-03T07:26:26;4.53;;;1.50;;
69150;SDS011;56257;52.196;13.870;2022-09-03T07:28:57;3.63;;;1.70;;
69150;SDS011;56257;52.196;13.870;2022-09-03T07:31:26;3.83;;;1.52;;
69150;SDS011;56257;52.196;13.870;2022-09-03T07:33:55;4.07;;;1.65;;
69150;SDS011;56257;52.196;13.870;2022-09-03T07:36:22;4.68;;;1.75;;
69150;SDS011;56257;52.196;13.870;2022-09-03T07:38:53;4.07;;;1.93;;
69150;SDS011;56257;52.196;13.870;2022-09-03T07:41:20;4.32;;;2.00;;
69150;SDS011;56257;52.196;13.870;2022-09-03T07:43:54;5.00;;;1.67;;
69150;SDS011;56257;52.196;13.870;2022-09-03T07:46:23;3.83;;;1.75;;
69150;SDS011;56257;52.196;13.870;2022-09-03T07:48:54;4.82;;;1.70;;
69150;SDS011;56257;52.196;13.870;2022-09-03T07:51:23;4.10;;;1.80;;
69150;SDS011;56257;52.196;13.870;2022-09-03T07:53:55;3.80;;;1.48;;
69150;SDS011;56257;52.196;13.870;2022-09-03T07:56:24;5.75;;;1.63;;
69150;SDS011;56257;52.196;13.870;2022-09-03T07:58:52;6.35;;;1.80;;
69150;SDS011;56257;52.196;13.870;2022-09-03T08:01:20;4.22;;;1.73;;
69150;SDS011;56257;52.196;13.870;2022-09-03T08:03:49;6.27;;;2.23;;
69150;SDS011;56257;52.196;13.870;2022-09-03T08:06:19;6.00;;;1.98;;
69150;SDS011;56257;52.196;13.870;2022-09-03T08:08:47;5.15;;;1.98;;
69150;SDS011;56257;52.196;13.870;2022-09-03T08:11:15;4.82;;;2.00;;
69150;SDS011;56257;52.196;13.870;2022-09-03T08:13:43;4.47;;;2.10;;
69150;SDS011;56257;52.196;13.870;2022-09-03T08:16:19;4.77;;;2.20;;
69150;SDS011;56257;52.196;13.870;2022-09-03T08:18:46;5.15;;;2.00;;
69150;SDS011;56257;52.196;13.870;2022-09-03T08:21:16;5.82;;;1.75;;
69150;SDS011;56257;52.196;13.870;2022-09-03T08:23:45;5.28;;;1.98;;
69150;SDS011;56257;52.196;13.870;2022-09-03T08:26:14;3.58;;;1.40;;
69150;SDS011;56257;52.196;13.870;2022-09-03T08:28:41;5.73;;;1.97;;
69150;SDS011;56257;52.196;13.870;2022-09-03T08:31:10;5.40;;;1.98;;
69150;SDS011;56257;52.196;13.870;2022-09-03T08:33:42;4.57;;;1.88;;
69150;SDS011;56257;52.196;13.870;2022-09-03T08:36:11;9.20;;;2.05;;
69150;SDS011;56257;52.196;13.870;2022-09-03T08:38:40;5.57;;;1.70;;
69150;SDS011;56257;52.196;13.870;2022-09-03T08:49:31;6.32;;;1.67;;
69150;SDS011;56257;52.196;13.870;2022-09-03T08:54:57;6.63;;;1.77;;
69150;SDS011;56257;52.196;13.870;2022-09-03T08:57:30;9.98;;;1.92;;
69150;SDS011;56257;52.196;13.870;2022-09-03T08:59:58;4.95;;;1.48;;
69150;SDS011;56257;52.196;13.870;2022-09-03T09:05:15;4.15;;;1.52;;
69150;SDS011;56257;52.196;13.870;2022-09-03T09:07:52;6.70;;;1.57;;
69150;SDS011;56257;52.196;13.870;2022-09-03T09:10:27;4.10;;;1.40;;
69150;SDS011;56257;52.196;13.870;2022-09-03T09:13:08;9.30;;;1.50;;
69150;SDS011;56257;52.196;13.870;2022-09-03T09:19:00;6.35;;;1.60;;
69150;SDS011;56257;52.196;13.870;2022-09-03T09:21:39;4.97;;;1.60;;
69150;SDS011;56257;52.196;13.870;2022-09-03T09:24:16;5.85;;;1.77;;
69150;SDS011;56257;52.196;13.870;2022-09-03T09:26:48;4.95;;;1.45;;
69150;SDS011;56257;52.196;13.870;2022-09-03T09:29:17;5.85;;;1.50;;
69150;SDS011;56257;52.196;13.870;2022-09-03T09:31:44;5.32;;;1.40;;
69150;SDS011;56257;52.196;13.870;2022-09-03T09:34:10;7.97;;;2.00;;
69150;SDS011;56257;52.196;13.870;2022-09-03T09:37:00;6.15;;;1.30;;
69150;SDS011;56257;52.196;13.870;2022-09-03T09:39:24;3.55;;;1.23;;
69150;SDS011;56257;52.196;13.870;2022-09-03T09:42:04;5.28;;;1.20;;
69150;SDS011;56257;52.196;13.870;2022-09-03T09:44:39;4.53;;;1.42;;
69150;SDS011;56257;52.196;13.870;2022-09-03T09:47:12;4.30;;;1.20;;
69150;SDS011;56257;52.196;13.870;2022-09-03T09:52:20;3.67;;;1.38;;
69150;SDS011;56257;52.196;13.870;2022-09-03T09:54:51;3.05;;;1.00;;
69150;SDS011;56257;52.196;13.870;2022-09-03T09:57:23;5.15;;;1.15;;
69150;SDS011;56257;52.196;13.870;2022-09-03T10:00:06;5.73;;;1.40;;
69150;SDS011;56257;52.196;13.870;2022-09-03T10:02:36;5.20;;;1.50;;
69150;SDS011;56257;52.196;13.870;2022-09-03T10:05:12;4.40;;;1.25;;
69150;SDS011;56257;52.196;13.870;2022-09-03T10:07:41;3.20;;;1.20;;
69150;SDS011;56257;52.196;13.870;2022-09-03T10:10:18;3.70;;;1.20;;
69150;SDS011;56257;52.196;13.870;2022-09-03T10:12:50;4.37;;;1.27;;
69150;SDS011;56257;52.196;13.870;2022-09-03T10:21:11;4.43;;;1.40;;
69150;SDS011;56257;52.196;13.870;2022-09-03T10:26:20;5.03;;;1.20;;
69150;SDS011;56257;52.196;13.870;2022-09-03T10:29:01;3.72;;;1.15;;
69150;SDS011;56257;52.196;13.870;2022-09-03T10:37:31;3.47;;;0.98;;
69150;SDS011;56257;52.196;13.870;2022-09-03T10:42:43;4.15;;;1.20;;
69150;SDS011;56257;52.196;13.870;2022-09-03T10:45:18;3.40;;;0.90;;
69150;SDS011;56257;52.196;13.870;2022-09-03T10:48:12;3.17;;;1.00;;
69150;SDS011;56257;52.196;13.870;2022-09-03T10:56:04;5.55;;;1.10;;
69150;SDS011;56257;52.196;13.870;2022-09-03T11:06:53;3.00;;;0.90;;
69150;SDS011;56257;52.196;13.870;2022-09-03T11:11:58;3.90;;;0.98;;
69150;SDS011;56257;52.196;13.870;2022-09-03T11:14:28;3.53;;;1.05;;
69150;SDS011;56257;52.196;13.870;2022-09-03T11:17:01;3.30;;;0.90;;
69150;SDS011;56257;52.196;13.870;2022-09-03T11:22:39;6.38;;;1.58;;
69150;SDS011;56257;52.196;13.870;2022-09-03T11:25:07;3.42;;;1.10;;
69150;SDS011;56257;52.196;13.870;2022-09-03T11:30:08;3.80;;;1.25;;
69150;SDS011;56257;52.196;13.870;2022-09-03T11:35:16;4.15;;;1.20;;
69150;SDS011;56257;52.196;13.870;2022-09-03T11:38:01;3.63;;;1.02;;
69150;SDS011;56257;52.196;13.870;2022-09-03T11:40:35;4.38;;;1.20;;
69150;SDS011;56257;52.196;13.870;2022-09-03T11:43:07;4.43;;;1.30;;
69150;SDS011;56257;52.196;13.870;2022-09-03T11:45:38;4.37;;;0.80;;
69150;SDS011;56257;52.196;13.870;2022-09-03T11:48:27;4.95;;;1.20;;
69150;SDS011;56257;52.196;13.870;2022-09-03T11:50:55;3.33;;;1.10;;
69150;SDS011;56257;52.196;13.870;2022-09-03T11:55:54;4.05;;;1.10;;
69150;SDS011;56257;52.196;13.870;2022-09-03T11:58:29;4.43;;;1.30;;
69150;SDS011;56257;52.196;13.870;2022-09-03T12:00:58;5.57;;;1.10;;
69150;SDS011;56257;52.196;13.870;2022-09-03T12:03:37;4.25;;;1.10;;
69150;SDS011;56257;52.196;13.870;2022-09-03T12:08:56;4.63;;;1.20;;
69150;SDS011;56257;52.196;13.870;2022-09-03T12:17:13;5.40;;;1.35;;
69150;SDS011;56257;52.196;13.870;2022-09-03T12:22:21;6.82;;;1.95;;
69150;SDS011;56257;52.196;13.870;2022-09-03T12:24:50;6.60;;;1.87;;
69150;SDS011;56257;52.196;13.870;2022-09-03T12:27:18;4.55;;;1.50;;
69150;SDS011;56257;52.196;13.870;2022-09-03T12:29:59;4.90;;;1.30;;
69150;SDS011;56257;52.196;13.870;2022-09-03T12:32:28;5.22;;;1.42;;
69150;SDS011;56257;52.196;13.870;2022-09-03T12:35:15;4.10;;;1.05;;
69150;SDS011;56257;52.196;13.870;2022-09-03T12:38:06;3.83;;;1.40;;
69150;SDS011;56257;52.196;13.870;2022-09-03T12:40:41;5.18;;;1.55;;
69150;SDS011;56257;52.196;13.870;2022-09-03T12:43:28;3.88;;;1.48;;
69150;SDS011;56257;52.196;13.870;2022-09-03T12:46:04;3.38;;;1.30;;
69150;SDS011;56257;52.196;13.870;2022-09-03T12:48:42;3.67;;;1.30;;
69150;SDS011;56257;52.196;13.870;2022-09-03T12:51:38;4.63;;;1.23;;
69150;SDS011;56257;52.196;13.870;2022-09-03T12:54:19;6.03;;;1.52;;
69150;SDS011;56257;52.196;13.870;2022-09-03T12:56:52;4.50;;;1.42;;
69150;SDS011;56257;52.196;13.870;2022-09-03T12:59:21;6.35;;;1.80;;
69150;SDS011;56257;52.196;13.870;2022-09-03T13:01:50;5.55;;;1.40;;
69150;SDS011;56257;52.196;13.870;2022-09-03T13:04:23;5.53;;;1.53;;
69150;SDS011;56257;52.196;13.870;2022-09-03T13:07:19;5.43;;;1.40;;
69150;SDS011;56257;52.196;13.870;2022-09-03T13:09:46;6.32;;;1.40;;
69150;SDS011;56257;52.196;13.870;2022-09-03T13:12:20;3.60;;;1.60;;
69150;SDS011;56257;52.196;13.870;2022-09-03T13:14:49;4.82;;;1.50;;
69150;SDS011;56257;52.196;13.870;2022-09-03T13:25:34;5.05;;;1.55;;
69150;SDS011;56257;52.196;13.870;2022-09-03T13:28:19;5.80;;;1.60;;
69150;SDS011;56257;52.196;13.870;2022-09-03T13:33:25;4.20;;;1.38;;
69150;SDS011;56257;52.196;13.870;2022-09-03T13:36:17;4.13;;;1.38;;
69150;SDS011;56257;52.196;13.870;2022-09-03T13:38:57;4.90;;;1.70;;
69150;SDS011;56257;52.196;13.870;2022-09-03T13:41:38;5.18;;;1.55;;
69150;SDS011;56257;52.196;13.870;2022-09-03T13:44:19;6.97;;;1.90;;
69150;SDS011;56257;52.196;13.870;2022-09-03T13:49:21;3.75;;;1.33;;
69150;SDS011;56257;52.196;13.870;2022-09-03T13:52:10;5.20;;;1.70;;
69150;SDS011;56257;52.196;13.870;2022-09-03T13:54:45;4.20;;;1.58;;
69150;SDS011;56257;52.196;13.870;2022-09-03T14:02:56;3.88;;;1.50;;
69150;SDS011;56257;52.196;13.870;2022-09-03T14:05:46;3.78;;;1.60;;
69150;SDS011;56257;52.196;13.870;2022-09-03T14:11:40;3.50;;;1.33;;
69150;SDS011;56257;52.196;13.870;2022-09-03T14:14:18;3.45;;;1.55;;
69150;SDS011;56257;52.196;13.870;2022-09-03T14:16:54;4.65;;;1.50;;
69150;SDS011;56257;52.196;13.870;2022-09-03T14:25:17;4.47;;;1.43;;
69150;SDS011;56257;52.196;13.870;2022-09-03T14:27:45;3.78;;;1.50;;
69150;SDS011;56257;52.196;13.870;2022-09-03T14:40:46;3.88;;;1.50;;
69150;SDS011;56257;52.196;13.870;2022-09-03T14:54:07;4.43;;;1.52;;
69150;SDS011;56257;52.196;13.870;2022-09-03T15:02:16;3.90;;;1.48;;
69150;SDS011;56257;52.196;13.870;2022-09-03T15:05:04;3.87;;;1.60;;
69150;SDS011;56257;52.196;13.870;2022-09-03T15:07:53;4.60;;;1.50;;
69150;SDS011;56257;52.196;13.870;2022-09-03T15:13:32;4.60;;;1.70;;
69150;SDS011;56257;52.196;13.870;2022-09-03T15:40:50;3.97;;;1.70;;
69150;SDS011;56257;52.196;13.870;2022-09-03T15:43:22;4.75;;;1.75;;
69150;SDS011;56257;52.196;13.870;2022-09-03T15:45:53;4.43;;;2.10;;
69150;SDS011;56257;52.196;13.870;2022-09-03T15:48:29;7.28;;;1.90;;
69150;SDS011;56257;52.196;13.870;2022-09-03T15:51:16;5.53;;;2.17;;
69150;SDS011;56257;52.196;13.870;2022-09-03T16:01:56;6.55;;;1.92;;
69150;SDS011;56257;52.196;13.870;2022-09-03T16:18:35;4.20;;;2.03;;
69150;SDS011;56257;52.196;13.870;2022-09-03T16:21:20;4.20;;;1.98;;
69150;SDS011;56257;52.196;13.870;2022-09-03T16:23:58;4.10;;;1.80;;
69150;SDS011;56257;52.196;13.870;2022-09-03T16:26:29;4.90;;;2.00;;
69150;SDS011;56257;52.196;13.870;2022-09-03T16:29:13;5.10;;;2.00;;
69150;SDS011;56257;52.196;13.870;2022-09-03T16:31:56;4.32;;;2.03;;
69150;SDS011;56257;52.196;13.870;2022-09-03T16:34:42;4.22;;;1.95;;
69150;SDS011;56257;52.196;13.870;2022-09-03T16:37:21;5.03;;;2.22;;
69150;SDS011;56257;52.196;13.870;2022-09-03T16:46:28;4.18;;;1.90;;
69150;SDS011;56257;52.196;13.870;2022-09-03T16:54:16;4.90;;;1.70;;
69150;SDS011;56257;52.196;13.870;2022-09-03T16:57:10;4.28;;;1.67;;
69150;SDS011;56257;52.196;13.870;2022-09-03T17:00:06;4.10;;;1.88;;
69150;SDS011;56257;52.196;13.870;2022-09-03T17:08:43;4.40;;;1.93;;
69150;SDS011;56257;52.196;13.870;2022-09-03T17:11:23;4.88;;;1.48;;
69150;SDS011;56257;52.196;13.870;2022-09-03T17:27:25;4.75;;;1.80;;
69150;SDS011;56257;52.196;13.870;2022-09-03T17:35:15;3.53;;;1.70;;
69150;SDS011;56257;52.196;13.870;2022-09-03T17:40:25;5.22;;;2.08;;
69150;SDS011;56257;52.196;13.870;2022-09-03T17:42:59;4.68;;;2.15;;
69150;SDS011;56257;52.196;13.870;2022-09-03T17:45:39;3.88;;;1.90;;
69150;SDS011;56257;52.196;13.870;2022-09-03T17:50:50;4.97;;;1.83;;
69150;SDS011;56257;52.196;13.870;2022-09-03T17:53:22;6.80;;;2.00;;
69150;SDS011;56257;52.196;13.870;2022-09-03T17:55:59;4.45;;;2.33;;
69150;SDS011;56257;52.196;13.870;2022-09-03T17:58:30;4.50;;;2.00;;
69150;SDS011;56257;52.196;13.870;2022-09-03T18:01:06;5.67;;;2.10;;
69150;SDS011;56257;52.196;13.870;2022-09-03T18:03:40;3.97;;;1.85;;
69150;SDS011;56257;52.196;13.870;2022-09-03T18:06:31;5.35;;;2.15;;
69150;SDS011;56257;52.196;13.870;2022-09-03T18:09:05;4.88;;;2.03;;
69150;SDS011;56257;52.196;13.870;2022-09-03T18:11:39;3.72;;;1.85;;
69150;SDS011;56257;52.196;13.870;2022-09-03T18:14:21;4.60;;;2.00;;
69150;SDS011;56257;52.196;13.870;2022-09-03T18:16:53;4.57;;;1.92;;
69150;SDS011;56257;52.196;13.870;2022-09-03T18:22:40;4.65;;;1.90;;
69150;SDS011;56257;52.196;13.870;2022-09-03T18:25:28;4.43;;;1.85;;
69150;SDS011;56257;52.196;13.870;2022-09-03T18:28:16;5.23;;;2.13;;
69150;SDS011;56257;52.196;13.870;2022-09-03T18:31:02;4.38;;;2.03;;
69150;SDS011;56257;52.196;13.870;2022-09-03T18:33:48;4.65;;;1.85;;
69150;SDS011;56257;52.196;13.870;2022-09-03T18:36:33;4.70;;;2.10;;
69150;SDS011;56257;52.196;13.870;2022-09-03T18:39:25;4.43;;;1.85;;
69150;SDS011;56257;52.196;13.870;2022-09-03T18:42:20;3.53;;;1.43;;
69150;SDS011;56257;52.196;13.870;2022-09-03T18:45:10;5.70;;;1.90;;
69150;SDS011;56257;52.196;13.870;2022-09-03T18:48:33;3.78;;;1.80;;
69150;SDS011;56257;52.196;13.870;2022-09-03T19:01:33;4.80;;;2.40;;
69150;SDS011;56257;52.196;13.870;2022-09-03T19:04:29;4.32;;;1.95;;
69150;SDS011;56257;52.196;13.870;2022-09-03T19:07:49;5.05;;;2.00;;
69150;SDS011;56257;52.196;13.870;2022-09-03T19:10:58;6.10;;;2.08;;
69150;SDS011;56257;52.196;13.870;2022-09-03T19:13:50;4.43;;;2.20;;
69150;SDS011;56257;52.196;13.870;2022-09-03T19:22:39;4.63;;;2.25;;
69150;SDS011;56257;52.196;13.870;2022-09-03T19:25:26;5.75;;;1.55;;
69150;SDS011;56257;52.196;13.870;2022-09-03T19:31:29;4.40;;;2.08;;
69150;SDS011;56257;52.196;13.870;2022-09-03T19:43:51;5.37;;;2.30;;
69150;SDS011;56257;52.196;13.870;2022-09-03T19:46:50;5.32;;;1.88;;
69150;SDS011;56257;52.196;13.870;2022-09-03T19:52:56;4.60;;;2.05;;
69150;SDS011;56257;52.196;13.870;2022-09-03T19:55:54;4.68;;;2.33;;
69150;SDS011;56257;52.196;13.870;2022-09-03T19:58:49;4.57;;;1.90;;
69150;SDS011;56257;52.196;13.870;2022-09-03T20:01:39;4.85;;;2.17;;
69150;SDS011;56257;52.196;13.870;2022-09-03T20:04:31;5.40;;;2.00;;
69150;SDS011;56257;52.196;13.870;2022-09-03T20:07:18;4.40;;;2.00;;
69150;SDS011;56257;52.196;13.870;2022-09-03T20:10:06;4.85;;;2.20;;
69150;SDS011;56257;52.196;13.870;2022-09-03T20:15:19;6.20;;;2.10;;
69150;SDS011;56257;52.196;13.870;2022-09-03T20:20:33;5.07;;;2.08;;
69150;SDS011;56257;52.196;13.870;2022-09-03T20:23:11;5.18;;;1.80;;
69150;SDS011;56257;52.196;13.870;2022-09-03T20:26:01;5.00;;;2.67;;
69150;SDS011;56257;52.196;13.870;2022-09-03T20:31:39;5.22;;;2.30;;
69150;SDS011;56257;52.196;13.870;2022-09-03T20:36:49;5.85;;;2.40;;
69150;SDS011;56257;52.196;13.870;2022-09-03T20:39:49;5.53;;;2.60;;
69150;SDS011;56257;52.196;13.870;2022-09-03T20:44:53;4.80;;;2.13;;